Time;durP1;ratioP1;P1;durP2;ratioP2;P2;SDS_P1;SDS_P2;PMS_P1;PMS_P2;Temp;Humidity;BMP_temperature;BMP_pressure;BME280_temperature;BME280_humidity;BME280_pressure;Samples;Min_cycle;Max_cycle;Signal;HPM_P1;HPM_P2
2023/07/13 00:00:52;;;;;;;13.00;5.97;;;;;;;22.42;64.52;100239.98;126790;1086;103565;-77
2023/07/13 00:03:41;;;;;;;16.30;5.70;;;;;;;22.44;64.61;100237.28;126771;1085;104345;-77
2023/07/13 00:06:10;;;;;;;10.37;5.50;;;;;;;22.44;64.65;100245.30;126830;1086;104324;-77
2023/07/13 00:08:39;;;;;;;12.23;5.63;;;;;;;22.47;64.90;100247.92;126859;1086;104318;-76
2023/07/13 00:11:07;;;;;;;11.67;5.33;;;;;;;22.48;64.91;100241.64;126577;1086;102882;-76
2023/07/13 00:13:38;;;;;;;9.93;5.13;;;;;;;22.49;64.69;100245.22;126606;1086;104294;-77
2023/07/13 00:16:07;;;;;;;15.57;5.70;;;;;;;22.48;64.72;100238.97;126674;1086;104155;-76
2023/07/13 00:18:35;;;;;;;9.50;4.93;;;;;;;22.47;65.44;100245.25;126591;1086;104229;-76
2023/07/13 00:21:05;;;;;;;11.27;5.33;;;;;;;22.46;65.49;100246.15;126543;1086;101884;-76
2023/07/13 00:23:34;;;;;;;13.77;5.77;;;;;;;22.47;65.56;100255.94;126575;1086;104321;-76
2023/07/13 00:26:03;;;;;;;16.97;5.30;;;;;;;22.48;65.94;100248.80;126376;1086;104258;-75
2023/07/13 00:28:32;;;;;;;12.87;5.30;;;;;;;22.47;66.15;100247.92;126553;1086;104153;-76
2023/07/13 00:31:01;;;;;;;10.43;4.80;;;;;;;22.47;65.66;100245.25;126703;1086;104025;-77
2023/07/13 00:33:30;;;;;;;11.43;5.60;;;;;;;22.45;66.26;100236.35;126603;1086;104152;-77
2023/07/13 00:35:59;;;;;;;10.03;5.07;;;;;;;22.42;66.67;100223.95;126712;1086;104361;-76
2023/07/13 00:38:28;;;;;;;10.33;5.33;;;;;;;22.43;66.29;100222.14;126432;1089;102416;-77
2023/07/13 00:40:56;;;;;;;11.13;4.97;;;;;;;22.44;66.11;100218.57;126670;1086;103201;-76
2023/07/13 00:43:28;;;;;;;13.10;5.85;;;;;;;22.46;66.63;100219.41;126660;1086;102162;-76
2023/07/13 00:46:17;;;;;;;13.87;5.70;;;;;;;22.47;66.12;100210.50;126650;1085;111417;-76
2023/07/13 00:48:48;;;;;;;11.30;5.27;;;;;;;22.48;66.65;100201.55;126618;1086;104206;-76
2023/07/13 00:51:22;;;;;;;12.40;5.60;;;;;;;22.48;66.26;100195.33;126675;1086;104383;-76
2023/07/13 00:53:53;;;;;;;12.63;5.57;;;;;;;22.47;66.75;100189.11;126777;1086;101989;-76
2023/07/13 00:56:22;;;;;;;11.93;5.53;;;;;;;22.44;67.57;100190.03;126817;1084;104196;-76
2023/07/13 00:58:50;;;;;;;9.37;5.53;;;;;;;22.43;67.01;100187.39;126731;1086;104153;-76
2023/07/13 01:01:20;;;;;;;10.53;5.10;;;;;;;22.41;67.64;100184.74;126439;1086;104156;-76
2023/07/13 01:03:48;;;;;;;13.33;5.57;;;;;;;22.39;67.76;100177.65;126736;1086;104282;-76
2023/07/13 01:06:17;;;;;;;11.20;5.93;;;;;;;22.36;67.80;100170.59;126647;1086;104276;-76
2023/07/13 01:08:46;;;;;;;10.40;5.10;;;;;;;22.34;67.77;100167.04;126749;1085;101838;-76
2023/07/13 01:11:20;;;;;;;10.60;5.17;;;;;;;22.35;67.77;100158.13;126661;1086;104158;-77
2023/07/13 01:13:49;;;;;;;10.33;5.60;;;;;;;22.34;67.68;100163.50;126835;1086;104159;-77
2023/07/13 01:16:25;;;;;;;11.83;5.37;;;;;;;22.34;67.96;100166.17;126745;1086;104228;-77
2023/07/13 01:18:58;;;;;;;9.90;5.50;;;;;;;22.34;68.35;100168.84;126694;1086;104171;-76
2023/07/13 01:21:27;;;;;;;14.23;5.40;;;;;;;22.36;68.15;100180.38;126690;1086;102143;-76
2023/07/13 01:23:56;;;;;;;10.53;5.63;;;;;;;22.35;68.27;100163.47;126797;1086;101768;-76
2023/07/13 01:26:25;;;;;;;11.43;5.23;;;;;;;22.34;68.72;100160.83;126666;1087;101918;-77
2023/07/13 01:28:53;;;;;;;9.97;5.23;;;;;;;22.32;68.69;100168.00;126754;1086;104175;-76
2023/07/13 01:31:22;;;;;;;10.20;5.57;;;;;;;22.31;68.50;100160.88;126623;1086;104188;-76
2023/07/13 01:33:50;;;;;;;12.83;5.50;;;;;;;22.31;68.08;100163.55;126656;1086;104187;-76
2023/07/13 01:36:21;;;;;;;12.03;5.77;;;;;;;22.30;68.71;100151.05;126683;1086;102340;-76
2023/07/13 01:38:49;;;;;;;11.17;5.37;;;;;;;22.28;68.39;100156.42;126626;1086;102207;-76
2023/07/13 01:41:18;;;;;;;11.87;5.90;;;;;;;22.28;68.81;100160.90;126622;1086;102369;-76
2023/07/13 01:43:48;;;;;;;11.13;6.30;;;;;;;22.27;68.98;100176.06;126548;1086;104187;-76
2023/07/13 01:46:16;;;;;;;15.17;5.30;;;;;;;22.24;68.84;100176.98;126671;1086;104280;-77
2023/07/13 01:48:45;;;;;;;12.20;5.50;;;;;;;22.24;68.65;100187.67;126809;1086;102855;-77
2023/07/13 01:51:13;;;;;;;9.23;5.47;;;;;;;22.23;69.12;100183.23;126775;1086;104260;-77
2023/07/13 01:53:42;;;;;;;11.83;5.60;;;;;;;22.22;69.01;100183.26;126710;1086;104356;-76
2023/07/13 01:56:11;;;;;;;10.63;5.77;;;;;;;22.21;68.71;100187.73;126609;1086;104421;-76
2023/07/13 01:58:39;;;;;;;10.40;5.30;;;;;;;22.21;69.65;100192.20;126681;1086;104331;-76
2023/07/13 02:01:08;;;;;;;12.13;5.63;;;;;;;22.22;69.66;100192.18;126720;1086;104309;-77
2023/07/13 02:03:36;;;;;;;11.17;5.63;;;;;;;22.21;69.09;100193.08;126539;1086;104207;-76
2023/07/13 02:06:05;;;;;;;9.20;5.53;;;;;;;22.19;69.99;100181.54;126486;1086;104200;-77
2023/07/13 02:08:34;;;;;;;10.97;5.70;;;;;;;22.19;69.76;100189.56;126727;1086;101871;-76
2023/07/13 02:11:04;;;;;;;11.90;5.67;;;;;;;22.18;69.85;100190.45;126757;1086;104301;-77
2023/07/13 02:13:32;;;;;;;11.00;5.33;;;;;;;22.19;69.79;100189.56;126527;1086;104161;-77
2023/07/13 02:16:01;;;;;;;10.07;5.27;;;;;;;22.19;70.07;100184.21;126818;1086;102392;-77
2023/07/13 02:18:29;;;;;;;13.63;5.30;;;;;;;22.19;69.46;100184.21;126745;1086;104146;-77
2023/07/13 02:20:58;;;;;;;9.87;5.10;;;;;;;22.22;69.74;100185.93;126448;1086;104268;-77
2023/07/13 02:23:26;;;;;;;11.07;5.57;;;;;;;22.20;70.17;100179.73;126747;1086;101886;-77
2023/07/13 02:25:57;;;;;;;11.50;5.60;;;;;;;22.18;70.41;100179.77;126725;1086;104232;-76
2023/07/13 02:28:25;;;;;;;8.45;5.25;;;;;;;22.18;70.64;100177.09;126772;1086;101722;-76
2023/07/13 02:30:54;;;;;;;13.00;5.13;;;;;;;22.18;69.87;100176.22;126711;1086;104219;-78
2023/07/13 02:33:22;;;;;;;12.37;5.73;;;;;;;22.18;70.45;100179.77;126687;1086;104219;-77
2023/07/13 02:35:51;;;;;;;15.43;5.87;;;;;;;22.18;69.92;100178.89;126463;1086;104197;-77
2023/07/13 02:38:20;;;;;;;9.95;5.20;;;;;;;22.16;70.69;100173.58;126725;1086;104225;-77
2023/07/13 02:40:49;;;;;;;11.07;6.17;;;;;;;22.14;69.86;100175.38;126793;1086;104270;-77
2023/07/13 02:43:17;;;;;;;11.40;5.70;;;;;;;22.13;70.90;100173.63;126802;1086;104283;-77
2023/07/13 02:45:46;;;;;;;12.20;5.80;;;;;;;22.13;70.96;100159.37;126716;1086;101851;-76
2023/07/13 02:48:15;;;;;;;8.63;5.47;;;;;;;22.12;70.50;100171.85;126714;1086;104165;-76
2023/07/13 02:50:45;;;;;;;11.53;5.63;;;;;;;22.11;70.94;100171.88;126605;1086;104153;-76
2023/07/13 02:53:13;;;;;;;11.20;5.80;;;;;;;22.11;71.06;100174.55;126657;1086;104161;-76
2023/07/13 02:55:47;;;;;;;8.87;5.30;;;;;;;22.07;70.75;100169.26;126578;1086;104257;-77
2023/07/13 02:58:35;;;;;;;10.17;5.50;;;;;;;22.04;71.01;100169.31;126780;1086;104206;-77
2023/07/13 03:01:08;;;;;;;13.60;6.03;;;;;;;22.04;71.60;100163.09;126732;1085;104297;-76
2023/07/13 03:03:38;;;;;;;12.45;5.75;;;;;;;22.05;71.54;100170.22;126787;1086;104181;-77
2023/07/13 03:06:08;;;;;;;10.27;5.70;;;;;;;22.03;71.24;100163.99;126727;1086;104261;-77
2023/07/13 03:08:41;;;;;;;14.80;6.27;;;;;;;22.03;71.08;100175.58;126650;1086;118502;-76
2023/07/13 03:11:13;;;;;;;13.13;6.20;;;;;;;22.03;71.03;100169.34;126774;1086;104213;-77
2023/07/13 03:13:43;;;;;;;11.50;5.80;;;;;;;22.02;71.26;100175.61;126986;1086;101925;-77
2023/07/13 03:16:14;;;;;;;12.80;5.80;;;;;;;22.02;71.52;100173.81;126786;1086;104200;-77
2023/07/13 03:18:44;;;;;;;11.40;6.00;;;;;;;22.02;71.84;100171.14;126736;1086;102333;-77
2023/07/13 03:21:13;;;;;;;13.63;6.07;;;;;;;22.03;71.69;100177.35;126515;1086;101859;-77
2023/07/13 03:23:41;;;;;;;12.40;6.13;;;;;;;22.02;72.16;100179.15;126775;1086;102232;-77
2023/07/13 03:26:13;;;;;;;11.40;5.87;;;;;;;22.04;71.42;100169.31;126469;1086;104158;-77
2023/07/13 03:28:43;;;;;;;12.07;5.90;;;;;;;22.06;71.89;100177.30;126544;1086;104280;-76
2023/07/13 03:31:16;;;;;;;11.80;5.90;;;;;;;22.08;71.56;100170.16;126483;1086;101947;-76
2023/07/13 03:33:45;;;;;;;13.67;6.03;;;;;;;22.12;72.14;100179.87;126837;1086;101830;-77
2023/07/13 03:36:18;;;;;;;12.90;6.17;;;;;;;22.16;72.55;100178.92;126461;1086;104296;-77
2023/07/13 03:38:48;;;;;;;13.20;6.00;;;;;;;22.19;72.39;100175.29;126824;1086;104175;-77
2023/07/13 03:41:20;;;;;;;12.13;5.87;;;;;;;22.22;71.93;100173.47;126795;1085;101902;-77
2023/07/13 03:43:50;;;;;;;11.17;6.10;;;;;;;22.25;72.34;100172.52;126774;1086;104226;-78
2023/07/13 03:46:20;;;;;;;14.07;6.50;;;;;;;22.27;72.58;100176.06;126676;1086;101884;-78
2023/07/13 03:48:49;;;;;;;10.33;5.57;;;;;;;22.31;72.23;100184.94;126423;1086;102298;-77
2023/07/13 03:51:19;;;;;;;14.20;6.03;;;;;;;22.36;72.42;100183.95;126604;1086;101781;-77
2023/07/13 03:53:48;;;;;;;9.65;5.80;;;;;;;22.39;72.10;100183.90;126734;1086;102207;-77
2023/07/13 03:56:19;;;;;;;11.50;5.53;;;;;;;22.44;72.69;100184.69;126824;1086;102108;-77
2023/07/13 03:58:49;;;;;;;13.30;5.90;;;;;;;22.49;72.89;100176.59;126955;1086;101840;-79
2023/07/13 04:01:22;;;;;;;14.45;6.47;;;;;;;22.52;73.00;100176.53;126886;1086;104182;-78
2023/07/13 04:03:51;;;;;;;11.37;5.87;;;;;;;22.56;72.37;100175.58;126833;1086;104159;-77
2023/07/13 04:06:22;;;;;;;11.80;6.20;;;;;;;22.60;72.90;100179.06;126682;1086;102430;-78
2023/07/13 04:08:52;;;;;;;15.13;6.40;;;;;;;22.65;72.94;100170.95;127015;1086;104156;-79
2023/07/13 04:11:23;;;;;;;10.80;6.33;;;;;;;22.69;72.88;100173.53;126889;1086;102568;-79
2023/07/13 04:13:52;;;;;;;14.60;7.03;;;;;;;22.73;72.78;100179.70;126763;1086;104197;-78
2023/07/13 04:16:21;;;;;;;13.50;6.47;;;;;;;22.77;72.82;100176.06;126882;1086;104172;-78
2023/07/13 04:18:54;;;;;;;13.07;6.50;;;;;;;22.82;72.47;100184.87;126883;1086;102096;-78
2023/07/13 04:21:22;;;;;;;;;;;;;;;22.87;72.71;100185.64;126962;1086;101835;-78
2023/07/13 04:23:50;;;;;;;10.47;5.97;;;;;;;22.93;72.39;100193.55;127078;1086;104168;-78
2023/07/13 04:26:20;;;;;;;11.30;5.97;;;;;;;22.94;72.52;100191.78;126932;1085;104174;-78
2023/07/13 04:28:49;;;;;;;14.77;6.70;;;;;;;23.00;72.50;100194.33;126968;1086;102149;-78
2023/07/13 04:31:18;;;;;;;10.63;6.40;;;;;;;23.04;72.94;100195.14;126985;1086;102452;-79
2023/07/13 04:33:47;;;;;;;12.50;6.50;;;;;;;23.08;73.01;100207.55;127068;1086;102077;-79
2023/07/13 04:36:15;;;;;;;12.30;6.77;;;;;;;23.11;72.51;100208.39;127073;1086;104213;-78
2023/07/13 04:38:44;;;;;;;11.53;6.50;;;;;;;23.16;72.51;100208.30;127810;1086;101861;-79
2023/07/13 04:41:13;;;;;;;11.93;6.87;;;;;;;23.21;72.89;100205.53;128087;1086;101798;-83
2023/07/13 04:43:41;;;;;;;12.70;7.00;;;;;;;23.24;72.52;100214.36;127662;1086;102047;-78
2023/07/13 04:46:12;;;;;;;13.43;6.67;;;;;;;23.26;72.54;100211.66;127960;1086;102022;-79
2023/07/13 04:48:44;;;;;;;12.90;6.87;;;;;;;23.30;72.62;100218.72;127341;1086;101897;-78
2023/07/13 04:51:13;;;;;;;15.10;6.97;;;;;;;23.32;72.85;100209.72;126963;1086;102182;-78
2023/07/13 04:53:41;;;;;;;13.47;7.00;;;;;;;23.36;72.49;100212.33;127016;1086;104383;-78
2023/07/13 04:56:10;;;;;;;13.43;7.30;;;;;;;23.39;72.56;100207.81;127014;1086;102452;-78
2023/07/13 04:58:40;;;;;;;14.53;6.93;;;;;;;23.45;72.68;100217.48;126879;1086;102385;-78
2023/07/13 05:01:09;;;;;;;13.03;6.90;;;;;;;23.49;72.70;100214.70;126965;1085;117804;-78
2023/07/13 05:03:41;;;;;;;19.17;7.90;;;;;;;23.57;72.80;100219.02;127008;1086;102095;-78
2023/07/13 05:06:10;;;;;;;13.37;7.63;;;;;;;23.59;72.57;100215.41;127072;1086;104149;-78
2023/07/13 05:08:39;;;;;;;12.83;7.13;;;;;;;23.64;72.70;100224.21;126542;1086;102030;-78
2023/07/13 05:11:07;;;;;;;15.37;7.40;;;;;;;23.71;72.68;100224.08;126635;1086;101807;-79
2023/07/13 05:13:36;;;;;;;15.20;7.50;;;;;;;23.77;73.08;100229.29;126370;1086;104149;-78
2023/07/13 05:16:07;;;;;;;18.07;7.40;;;;;;;23.84;72.51;100226.47;126985;1086;102365;-78
2023/07/13 05:18:36;;;;;;;14.47;7.70;;;;;;;23.90;72.32;100225.42;127171;1086;104261;-79
2023/07/13 05:21:06;;;;;;;14.20;7.80;;;;;;;23.96;72.43;100225.27;127057;1086;104162;-81
2023/07/13 05:23:36;;;;;;;14.37;7.43;;;;;;;24.03;72.64;100223.35;127473;1086;102346;-83
2023/07/13 05:26:05;;;;;;;17.53;7.87;;;;;;;24.10;72.54;100222.27;127325;1086;102906;-78
2023/07/13 05:28:33;;;;;;;16.40;7.80;;;;;;;24.17;72.19;100228.38;127031;1086;102266;-77
2023/07/13 05:31:03;;;;;;;15.60;8.20;;;;;;;24.23;72.28;100226.41;127085;1086;102090;-77
2023/07/13 05:33:32;;;;;;;15.77;8.20;;;;;;;24.30;72.13;100237.85;127038;1086;104251;-79
2023/07/13 05:36:01;;;;;;;15.87;8.13;;;;;;;24.37;72.03;100241.25;127309;1086;102920;-79
2023/07/13 05:38:30;;;;;;;18.60;8.30;;;;;;;24.44;72.22;100240.19;127076;1086;102178;-78
2023/07/13 05:40:58;;;;;;;16.00;8.33;;;;;;;24.52;71.95;100242.67;127386;1086;104168;-82
2023/07/13 05:43:27;;;;;;;18.63;8.50;;;;;;;24.60;72.14;100242.50;127431;1085;102188;-78
2023/07/13 05:45:58;;;;;;;15.23;7.90;;;;;;;24.66;72.17;100245.89;127386;1086;102200;-80
2023/07/13 05:48:27;;;;;;;17.13;8.00;;;;;;;24.73;71.51;100244.83;126934;1086;104191;-83
2023/07/13 05:51:02;;;;;;;17.87;7.87;;;;;;;24.80;71.95;100241.98;127574;1086;102425;-80
2023/07/13 05:53:35;;;;;;;16.13;8.63;;;;;;;24.85;71.78;100245.41;127041;1086;101983;-78
2023/07/13 05:58:40;;;;;;;14.87;7.67;;;;;;;24.96;70.84;100239.74;127922;1086;102245;-80
2023/07/13 06:01:14;;;;;;;13.13;7.27;;;;;;;25.02;70.85;100244.94;127266;1085;104274;-82
2023/07/13 06:03:49;;;;;;;16.87;8.13;;;;;;;25.07;70.70;100237.63;127405;1086;102877;-77
2023/07/13 06:06:25;;;;;;;14.17;7.27;;;;;;;25.14;70.53;100235.67;126714;1086;102026;-77
2023/07/13 06:08:58;;;;;;;15.17;7.40;;;;;;;25.19;69.78;100239.96;126352;1086;101882;-77
2023/07/13 06:11:29;;;;;;;12.05;6.55;;;;;;;25.25;69.38;100241.60;126611;1086;104155;-79
2023/07/13 06:14:23;;;;;;;;;;;;;;;;;;;;;
2023/07/13 06:16:57;;;;;;;15.10;7.67;;;;;;;25.38;69.61;100245.70;127512;1086;101815;-86
2023/07/13 06:19:29;;;;;;;15.10;7.80;;;;;;;25.43;69.49;100243.78;127417;1086;102052;-80
2023/07/13 06:21:58;;;;;;;19.07;11.90;;;;;;;25.47;69.36;100257.98;126545;1086;102102;-79
2023/07/13 06:24:30;;;;;;;14.00;7.77;;;;;;;25.48;69.20;100246.33;127110;1086;104226;-81
2023/07/13 06:27:01;;;;;;;15.90;7.70;;;;;;;25.52;68.91;100255.16;127562;1086;102105;-79
2023/07/13 06:29:36;;;;;;;13.10;7.47;;;;;;;25.58;68.87;100255.84;127300;1086;102194;-79
2023/07/13 06:32:10;;;;;;;17.53;7.70;;;;;;;25.66;68.63;100255.62;126736;1086;102946;-82
2023/07/13 06:34:38;;;;;;;13.20;7.65;;;;;;;25.73;68.49;100251.83;127047;1086;102362;-80
2023/07/13 06:37:08;;;;;;;16.37;8.33;;;;;;;25.79;68.18;100254.33;126871;1086;102037;-80
2023/07/13 06:39:36;;;;;;;18.65;7.35;;;;;;;25.88;67.74;100246.89;127294;1085;101837;-75
2023/07/13 06:42:09;;;;;;;17.00;7.93;;;;;;;25.95;67.74;100238.59;127603;1086;102302;-77
2023/07/13 06:44:38;;;;;;;14.17;7.70;;;;;;;26.00;67.07;100243.84;126902;1086;101807;-76
2023/07/13 06:47:14;;;;;;;13.87;7.37;;;;;;;26.05;67.33;100249.95;128703;1085;101651;-79
2023/07/13 06:49:45;;;;;;;14.43;7.97;;;;;;;26.11;67.20;100244.37;127119;1086;102234;-80
2023/07/13 06:52:14;;;;;;;14.47;7.20;;;;;;;26.19;67.31;100239.64;127086;1086;102395;-83
2023/07/13 06:54:43;;;;;;;14.27;7.37;;;;;;;26.29;66.84;100240.20;128895;1085;101789;-83
2023/07/13 06:57:16;;;;;;;11.43;7.03;;;;;;;26.40;66.65;100234.47;127338;1086;101861;-80
2023/07/13 06:59:46;;;;;;;12.95;7.35;;;;;;;26.53;66.41;100233.09;128996;1085;101731;-81
2023/07/13 07:02:18;;;;;;;15.37;7.70;;;;;;;26.63;66.06;100230.08;126701;1085;102262;-77
2023/07/13 07:04:51;;;;;;;14.58;7.22;;;;;;;26.76;65.58;100234.14;127610;1085;104151;-80
2023/07/13 07:07:24;;;;;;;13.50;7.05;;;;;;;26.90;65.83;100239.03;126904;1086;102002;-77
2023/07/13 07:10:00;;;;;;;14.57;7.47;;;;;;;26.99;65.37;100230.63;128229;1085;101750;-80
2023/07/13 07:12:46;;;;;;;13.13;7.53;;;;;;;27.15;65.30;100244.39;127705;1086;102102;-86
2023/07/13 07:15:19;;;;;;;13.47;7.87;;;;;;;27.28;64.40;100244.80;127691;1086;104258;-80
2023/07/13 07:17:56;;;;;;;15.23;7.93;;;;;;;27.37;64.57;100241.80;128185;1086;101084;-78
2023/07/13 07:20:30;;;;;;;14.23;7.90;;;;;;;27.50;63.80;100231.42;126967;1086;102278;-78
2023/07/13 07:23:02;;;;;;;14.20;8.27;;;;;;;27.66;63.47;100250.59;126809;1086;102213;-79
2023/07/13 07:25:36;;;;;;;14.27;7.97;;;;;;;27.92;63.35;100257.61;127002;1085;104204;-80
2023/07/13 07:28:05;;;;;;;13.27;7.67;;;;;;;28.13;62.28;100255.04;126520;1086;104171;-79
2023/07/13 07:30:35;;;;;;;12.70;7.93;;;;;;;28.30;61.49;100257.91;126641;1085;104184;-75
2023/07/13 07:33:06;;;;;;;15.03;7.60;;;;;;;28.46;61.93;100262.66;126295;1086;104423;-75
2023/07/13 07:35:35;;;;;;;13.13;7.47;;;;;;;28.56;61.40;100258.61;126573;1086;104389;-78
2023/07/13 07:38:05;;;;;;;14.07;7.27;;;;;;;28.66;61.00;100254.61;127488;1086;104321;-81
2023/07/13 07:40:39;;;;;;;13.23;7.60;;;;;;;28.84;60.89;100258.34;127841;1085;104248;-80
2023/07/13 07:43:21;;;;;;;11.63;7.33;;;;;;;29.05;60.31;100263.73;127228;1086;103797;-79
2023/07/13 07:45:54;;;;;;;14.47;7.70;;;;;;;29.26;59.59;100263.72;127373;1086;104223;-78
2023/07/13 07:48:26;;;;;;;13.63;7.77;;;;;;;29.40;58.99;100254.05;127705;1085;101875;-79
2023/07/13 07:50:58;;;;;;;14.23;7.83;;;;;;;29.55;58.86;100257.84;127822;1086;101841;-77
2023/07/13 07:53:27;;;;;;;11.03;7.10;;;;;;;29.73;58.62;100257.91;127410;1085;103342;-79
2023/07/13 07:56:01;;;;;;;13.20;7.53;;;;;;;29.81;58.27;100254.87;126686;1086;104248;-80
2023/07/13 07:58:36;;;;;;;19.53;8.27;;;;;;;29.85;58.15;100256.48;127997;1085;101985;-76
2023/07/13 08:01:08;;;;;;;15.63;7.73;;;;;;;30.04;57.70;100251.05;127090;1086;104270;-83
2023/07/13 08:03:37;;;;;;;18.73;7.60;;;;;;;30.31;56.73;100254.22;127172;1086;104322;-78
2023/07/13 08:06:07;;;;;;;14.00;7.43;;;;;;;30.36;56.59;100249.44;127396;1086;102074;-78
2023/07/13 08:08:36;;;;;;;15.67;8.30;;;;;;;30.43;56.66;100252.73;128378;1086;102009;-78
2023/07/13 08:11:10;;;;;;;17.67;8.07;;;;;;;30.64;55.82;100251.63;127542;1086;104144;-79
2023/07/13 08:13:39;;;;;;;13.83;7.73;;;;;;;30.79;55.06;100246.36;127854;1086;102048;-80
2023/07/13 08:16:11;;;;;;;13.53;7.73;;;;;;;31.04;54.41;100253.22;127543;1086;104146;-82
2023/07/13 08:18:43;;;;;;;12.03;7.50;;;;;;;31.21;53.41;100250.47;126685;1086;101874;-80
2023/07/13 08:21:13;;;;;;;12.63;6.83;;;;;;;31.31;52.97;100242.73;126840;1086;101828;-81
2023/07/13 08:23:44;;;;;;;14.00;7.13;;;;;;;31.53;52.39;100265.00;126872;1086;104651;-76
2023/07/13 08:26:17;;;;;;;15.53;7.77;;;;;;;31.66;51.66;100258.89;126535;1086;101905;-78
2023/07/13 08:28:45;;;;;;;14.58;8.20;;;;;;;31.53;52.14;100259.58;127587;1086;102012;-82
2023/07/13 08:31:14;;;;;;;18.33;7.67;;;;;;;31.65;51.13;100254.42;126798;1086;104305;-77
2023/07/13 08:33:43;;;;;;;14.43;7.00;;;;;;;31.77;51.40;100253.73;126531;1086;104258;-76
2023/07/13 08:36:15;;;;;;;12.83;7.43;;;;;;;31.90;50.68;100257.51;126477;1086;104221;-75
2023/07/13 08:38:45;;;;;;;11.73;7.13;;;;;;;31.93;50.06;100260.99;126306;1086;104370;-73
2023/07/13 08:41:17;;;;;;;11.40;6.80;;;;;;;32.08;49.56;100262.83;126516;1086;102022;-78
2023/07/13 08:43:50;;;;;;;11.10;6.43;;;;;;;32.04;49.39;100267.57;127516;1086;104178;-78
2023/07/13 08:46:24;;;;;;;12.00;6.97;;;;;;;32.17;48.69;100261.47;126497;1086;102006;-80
2023/07/13 08:48:57;;;;;;;13.97;7.17;;;;;;;32.21;47.96;100263.02;126491;1086;101829;-80
2023/07/13 08:51:43;;;;;;;13.67;7.00;;;;;;;32.19;48.06;100260.39;127686;1085;104222;-80
2023/07/13 08:54:30;;;;;;;13.10;7.13;;;;;;;32.16;47.72;100257.85;127226;1085;104167;-82
2023/07/13 08:57:02;;;;;;;11.20;6.57;;;;;;;32.18;47.23;100247.80;126432;1086;104644;-77
2023/07/13 08:59:34;;;;;;;12.90;6.70;;;;;;;32.25;47.23;100238.31;126604;1086;104251;-76
2023/07/13 09:02:30;;;;;;;9.67;6.50;;;;;;;32.32;46.41;100244.28;126292;1086;102006;-80
2023/07/13 09:05:12;;;;;;;13.47;6.53;;;;;;;32.40;46.14;100241.11;127095;1086;101971;-80
2023/07/13 09:07:58;;;;;;;13.03;6.60;;;;;;;32.39;46.19;100233.92;126355;1086;104232;-75
2023/07/13 09:10:32;;;;;;;12.67;6.43;;;;;;;32.40;45.50;100233.83;126238;1086;101829;-77
2023/07/13 09:13:12;;;;;;;12.10;6.20;;;;;;;32.40;44.78;100231.11;126270;1086;104175;-75
2023/07/13 09:15:44;;;;;;;13.83;6.40;;;;;;;32.49;44.79;100229.70;125893;1086;104261;-75
2023/07/13 09:18:18;;;;;;;10.63;5.83;;;;;;;32.39;45.03;100228.48;125989;1089;104245;-78
2023/07/13 09:20:54;;;;;;;10.77;6.10;;;;;;;32.42;44.59;100225.59;126410;1085;104186;-78
2023/07/13 09:23:25;;;;;;;10.40;6.10;;;;;;;32.42;44.43;100231.88;126248;1086;102321;-77
2023/07/13 09:26:07;;;;;;;9.17;5.90;;;;;;;32.49;44.22;100240.56;126333;1086;103562;-77
2023/07/13 09:28:42;;;;;;;12.20;6.10;;;;;;;32.43;44.06;100236.36;126420;1086;102073;-79
2023/07/13 09:31:15;;;;;;;11.00;6.10;;;;;;;32.55;44.10;100234.77;126377;1086;104044;-78
2023/07/13 09:33:45;;;;;;;11.83;6.00;;;;;;;32.61;43.92;100238.92;126421;1086;104156;-78
2023/07/13 09:36:24;;;;;;;12.47;6.07;;;;;;;32.62;44.02;100227.11;126534;1086;104282;-79
2023/07/13 09:39:03;;;;;;;10.97;6.17;;;;;;;32.60;43.67;100229.91;127489;1086;104175;-79
2023/07/13 09:41:41;;;;;;;14.40;6.80;;;;;;;32.48;43.39;100232.51;126748;1086;104188;-79
2023/07/13 09:44:13;;;;;;;9.30;5.80;;;;;;;32.39;43.75;100232.06;126819;1086;102032;-79
2023/07/13 09:46:55;;;;;;;12.50;6.33;;;;;;;32.29;43.26;100239.03;127564;1085;101813;-81
2023/07/13 09:49:26;;;;;;;9.80;6.20;;;;;;;32.04;43.36;100228.72;126367;1086;104287;-79
2023/07/13 09:52:05;;;;;;;9.70;5.90;;;;;;;32.06;43.51;100229.48;126433;1086;104249;-80
2023/07/13 09:54:45;;;;;;;10.83;6.70;;;;;;;32.06;43.48;100224.92;126560;1086;104305;-81
2023/07/13 09:57:25;;;;;;;11.83;6.33;;;;;;;32.07;43.24;100228.53;126551;1086;104177;-78
2023/07/13 09:59:58;;;;;;;9.70;6.20;;;;;;;32.04;43.10;100228.72;126497;1086;102066;-79
2023/07/13 10:02:34;;;;;;;11.97;6.40;;;;;;;31.98;43.24;100229.07;126398;1086;102101;-76
2023/07/13 10:05:07;;;;;;;9.63;6.10;;;;;;;31.98;43.19;100223.64;126249;1086;104190;-77
2023/07/13 10:07:45;;;;;;;13.07;6.57;;;;;;;31.96;43.23;100225.55;126363;1086;104721;-77
2023/07/13 10:10:17;;;;;;;11.40;6.10;;;;;;;31.85;43.45;100229.78;126358;1086;102324;-82
2023/07/13 10:12:47;;;;;;;9.53;6.03;;;;;;;31.79;43.20;100219.27;126638;1086;104204;-79
2023/07/13 10:15:19;;;;;;;11.70;6.27;;;;;;;31.84;43.29;100222.59;126374;1086;104228;-77
2023/07/13 10:17:49;;;;;;;9.13;6.00;;;;;;;31.82;43.24;100218.20;126593;1086;104188;-79
2023/07/13 10:20:20;;;;;;;13.90;6.27;;;;;;;31.88;43.35;100218.75;126542;1086;104153;-78
2023/07/13 10:25:38;;;;;;;11.03;6.13;;;;;;;32.19;43.24;100213.38;126715;1086;104229;-83
2023/07/13 10:28:25;;;;;;;12.73;5.97;;;;;;;32.30;42.65;100202.75;127545;1086;102102;-79
2023/07/13 10:30:56;;;;;;;10.90;6.40;;;;;;;32.23;42.80;100215.83;126926;1086;104203;-80
2023/07/13 10:33:26;;;;;;;11.73;6.50;;;;;;;31.99;42.84;100204.56;127166;1086;104302;-81
2023/07/13 10:36:05;;;;;;;13.30;5.80;;;;;;;31.83;43.07;100206.41;126950;1086;104213;-78
2023/07/13 10:38:38;;;;;;;;;;;;;;;31.92;42.91;100200.45;127355;1086;104174;-79
2023/07/13 10:41:13;;;;;;;12.40;6.57;;;;;;;32.05;42.82;100198.77;126959;1086;101887;-77
2023/07/13 10:43:44;;;;;;;9.63;6.03;;;;;;;32.17;43.13;100202.62;126676;1086;102005;-79
2023/07/13 10:46:16;;;;;;;11.10;5.93;;;;;;;32.30;42.79;100204.61;126405;1086;102635;-77
2023/07/13 10:49:01;;;;;;;10.80;6.22;;;;;;;32.26;42.49;100190.34;126403;1086;104232;-77
2023/07/13 10:51:40;;;;;;;13.03;6.60;;;;;;;32.31;42.51;100199.08;126354;1086;104178;-78
2023/07/13 10:54:22;;;;;;;13.07;6.20;;;;;;;32.32;42.52;100194.52;126536;1086;104153;-76
2023/07/13 10:57:16;;;;;;;11.10;6.37;;;;;;;32.39;42.49;100196.77;126645;1086;104155;-77
2023/07/13 10:59:48;;;;;;;9.77;6.00;;;;;;;32.51;42.31;100205.16;126836;1086;101957;-79
2023/07/13 11:02:27;;;;;;;12.03;5.90;;;;;;;32.52;42.08;100207.79;126586;1086;104176;-77
2023/07/13 11:04:57;;;;;;;11.63;6.13;;;;;;;32.57;42.34;100205.66;126197;1086;102526;-77
2023/07/13 11:07:29;;;;;;;9.87;6.10;;;;;;;32.67;42.28;100199.70;126322;1086;104207;-78
2023/07/13 11:09:59;;;;;;;10.47;6.40;;;;;;;32.82;41.97;100200.58;126445;1086;104166;-76
2023/07/13 11:12:48;;;;;;;13.97;6.87;;;;;;;32.86;41.86;100211.16;126770;1086;101919;-81
2023/07/13 11:15:33;;;;;;;10.33;6.20;;;;;;;32.86;41.48;100219.31;127910;1085;104223;-79
2023/07/13 11:18:22;;;;;;;8.60;6.20;;;;;;;32.77;41.78;100211.72;126584;1086;102207;-77
2023/07/13 11:20:51;;;;;;;10.67;6.67;;;;;;;32.85;41.68;100219.40;126316;1086;104184;-78
2023/07/13 11:23:32;;;;;;;11.07;6.50;;;;;;;32.73;41.38;100223.77;127509;1086;101842;-78
2023/07/13 11:26:04;;;;;;;13.37;6.70;;;;;;;32.50;41.66;100209.70;126427;1085;104186;-77
2023/07/13 11:28:43;;;;;;;8.83;5.83;;;;;;;32.60;41.94;100219.05;126377;1086;102391;-76
2023/07/13 11:31:18;;;;;;;11.40;6.70;;;;;;;32.82;41.91;100216.87;126720;1086;101834;-81